createdAt,value
2019-02-24T00:00:43.168Z,10.25
2019-02-24T00:03:10.842Z,9.60
2019-02-24T00:05:38.517Z,12.25
2019-02-24T00:08:06.220Z,11.08
2019-02-24T00:10:33.660Z,10.03
2019-02-24T00:13:01.344Z,9.90
2019-02-24T00:15:28.751Z,10.72
2019-02-24T00:17:56.188Z,9.80
2019-02-24T00:20:23.571Z,10.47
2019-02-24T00:22:51.393Z,10.63
2019-02-24T00:25:18.983Z,10.27
2019-02-24T00:27:46.359Z,9.60
2019-02-24T00:30:13.772Z,10.30
2019-02-24T00:32:41.538Z,10.73
2019-02-24T00:35:08.926Z,11.75
2019-02-24T00:37:36.416Z,10.87
2019-02-24T00:40:03.847Z,10.58
2019-02-24T00:42:31.257Z,10.50
2019-02-24T00:44:58.646Z,10.37
2019-02-24T00:47:26.077Z,10.48
2019-02-24T00:49:53.471Z,11.27
2019-02-24T00:52:20.879Z,11.30
2019-02-24T00:54:48.309Z,10.40
2019-02-24T00:57:15.843Z,9.75
2019-02-24T00:59:43.405Z,10.45
2019-02-24T01:02:10.799Z,10.10
2019-02-24T01:04:38.464Z,10.60
2019-02-24T01:07:05.907Z,10.65
2019-02-24T01:09:52.285Z,9.80
2019-02-24T01:12:19.670Z,11.00
2019-02-24T01:14:47.404Z,9.50
2019-02-24T01:17:14.897Z,10.80
2019-02-24T01:19:42.299Z,9.68
2019-02-24T01:22:10.617Z,9.80
2019-02-24T01:24:38.039Z,9.70
2019-02-24T01:27:05.742Z,10.98
2019-02-24T01:29:33.206Z,10.03
2019-02-24T01:32:00.608Z,10.80
2019-02-24T01:34:28.007Z,9.33
2019-02-24T01:36:55.477Z,9.27
2019-02-24T01:39:22.918Z,9.77
2019-02-24T01:41:50.324Z,10.20
2019-02-24T01:44:17.736Z,10.45
2019-02-24T01:46:45.179Z,10.18
2019-02-24T01:49:12.588Z,9.90
2019-02-24T01:51:40.406Z,9.30
2019-02-24T01:54:07.845Z,9.40
2019-02-24T01:56:35.315Z,9.50
2019-02-24T01:59:02.760Z,10.17
2019-02-24T02:01:30.229Z,11.60
2019-02-24T02:03:57.794Z,10.15
2019-02-24T02:06:25.183Z,11.30
2019-02-24T02:08:52.821Z,9.30
2019-02-24T02:11:20.398Z,8.50
2019-02-24T02:13:47.789Z,9.97
2019-02-24T02:16:15.195Z,9.63
2019-02-24T02:18:42.594Z,8.70
2019-02-24T02:21:09.980Z,9.23
2019-02-24T02:23:37.390Z,9.37
2019-02-24T02:26:04.797Z,9.77
2019-02-24T02:28:32.261Z,9.78
2019-02-24T02:30:59.687Z,9.47
2019-02-24T02:33:27.109Z,9.17
2019-02-24T02:35:54.474Z,9.57
2019-02-24T02:38:21.894Z,9.73
2019-02-24T02:40:49.293Z,9.73
2019-02-24T02:43:17.066Z,9.67
2019-02-24T02:45:44.535Z,9.10
2019-02-24T02:48:11.932Z,10.60
2019-02-24T02:50:39.328Z,9.60
2019-02-24T02:53:07.317Z,9.80
2019-02-24T02:55:34.769Z,9.38
2019-02-24T02:58:02.396Z,11.28
2019-02-24T03:00:29.880Z,10.65
2019-02-24T03:02:57.286Z,9.63
2019-02-24T03:05:24.666Z,10.10
2019-02-24T03:07:57.104Z,9.73
2019-02-24T03:10:24.672Z,9.33
2019-02-24T03:12:52.128Z,9.70
2019-02-24T03:15:19.551Z,9.83
2019-02-24T03:17:46.949Z,9.70
2019-02-24T03:20:14.345Z,8.95
2019-02-24T03:22:41.775Z,9.57
2019-02-24T03:25:09.253Z,9.63
2019-02-24T03:27:36.634Z,10.30
2019-02-24T03:30:04.039Z,9.43
2019-02-24T03:32:31.435Z,9.37
2019-02-24T03:34:58.831Z,9.97
2019-02-24T03:37:26.371Z,11.07
2019-02-24T03:39:53.962Z,9.23
2019-02-24T03:42:21.355Z,9.27
2019-02-24T03:44:48.784Z,10.57
2019-02-24T03:47:16.167Z,9.48
2019-02-24T03:49:43.564Z,9.83
2019-02-24T03:52:10.988Z,9.67
2019-02-24T03:54:38.495Z,9.75
2019-02-24T03:57:05.944Z,9.45
2019-02-24T03:59:33.355Z,9.73
2019-02-24T04:02:00.749Z,9.80
2019-02-24T04:04:28.179Z,11.20
2019-02-24T04:06:55.891Z,9.50
2019-02-24T04:09:23.356Z,11.05
2019-02-24T04:11:50.838Z,9.77
2019-02-24T04:14:18.249Z,9.37
2019-02-24T04:16:45.660Z,10.03
2019-02-24T04:19:13.229Z,10.93
2019-02-24T04:21:40.683Z,9.50
2019-02-24T04:24:08.153Z,9.40
2019-02-24T04:26:35.640Z,9.73
2019-02-24T04:29:03.350Z,9.83
2019-02-24T04:31:30.744Z,10.00
2019-02-24T04:33:58.201Z,9.73
2019-02-24T04:36:25.591Z,9.90
2019-02-24T04:38:52.971Z,9.20
2019-02-24T04:41:20.433Z,8.90
2019-02-24T04:43:47.819Z,9.43
2019-02-24T04:46:15.252Z,9.00
2019-02-24T04:48:42.778Z,8.60
2019-02-24T04:51:10.194Z,9.05
2019-02-24T04:53:37.608Z,8.10
2019-02-24T04:56:05.451Z,9.10
2019-02-24T04:58:32.842Z,8.53
2019-02-24T05:01:00.220Z,9.30
2019-02-24T05:03:27.655Z,8.73
2019-02-24T05:05:55.096Z,8.70
2019-02-24T05:08:22.494Z,9.47
2019-02-24T05:10:49.938Z,8.70
2019-02-24T05:13:17.588Z,9.37
2019-02-24T05:15:44.973Z,9.20
2019-02-24T05:18:12.436Z,8.83
2019-02-24T05:20:39.827Z,9.63
2019-02-24T05:23:07.226Z,9.63
2019-02-24T05:25:34.644Z,8.95
2019-02-24T05:28:02.025Z,8.83
2019-02-24T05:30:29.426Z,9.08
2019-02-24T05:32:56.905Z,9.03
2019-02-24T05:35:24.479Z,9.83
2019-02-24T05:37:52.092Z,9.08
2019-02-24T05:40:19.709Z,9.43
2019-02-24T05:42:49.847Z,9.47
2019-02-24T05:45:17.425Z,9.68
2019-02-24T05:47:44.853Z,9.40
2019-02-24T05:50:12.282Z,9.33
2019-02-24T05:52:39.671Z,9.13
2019-02-24T05:55:07.130Z,9.25
2019-02-24T05:57:34.838Z,9.40
2019-02-24T06:00:02.313Z,9.78
2019-02-24T06:02:48.715Z,8.83
2019-02-24T06:05:16.114Z,9.53
2019-02-24T06:07:43.505Z,9.60
2019-02-24T06:10:11.272Z,9.00
2019-02-24T06:12:38.684Z,9.70
2019-02-24T06:15:06.136Z,8.60
2019-02-24T06:17:33.644Z,8.78
2019-02-24T06:20:01.031Z,8.57
2019-02-24T06:22:28.418Z,8.20
2019-02-24T06:24:55.858Z,8.60
2019-02-24T06:27:23.367Z,8.27
2019-02-24T06:29:50.774Z,8.80
2019-02-24T06:32:18.230Z,8.30
2019-02-24T06:34:45.623Z,8.93
2019-02-24T06:37:13.010Z,8.10
2019-02-24T06:39:40.644Z,8.37
2019-02-24T06:42:08.058Z,9.13
2019-02-24T06:44:35.438Z,8.90
2019-02-24T06:47:02.950Z,7.83
2019-02-24T06:49:30.353Z,8.60
2019-02-24T06:51:57.742Z,8.68
2019-02-24T06:54:25.380Z,9.67
2019-02-24T06:56:52.932Z,9.07
2019-02-24T06:59:20.326Z,7.83
2019-02-24T07:01:47.803Z,8.83
2019-02-24T07:04:15.431Z,8.23
2019-02-24T07:06:42.905Z,8.33
2019-02-24T07:09:10.319Z,8.20
2019-02-24T07:11:37.728Z,8.33
2019-02-24T07:14:05.281Z,8.70
2019-02-24T07:16:32.684Z,8.30
2019-02-24T07:19:00.065Z,8.43
2019-02-24T07:21:27.490Z,7.75
2019-02-24T07:23:54.875Z,7.83
2019-02-24T07:26:22.271Z,7.97
2019-02-24T07:28:49.727Z,7.13
2019-02-24T07:31:17.435Z,7.37
2019-02-24T07:33:44.827Z,7.23
2019-02-24T07:36:12.278Z,7.83
2019-02-24T07:38:39.669Z,8.90
2019-02-24T07:41:07.295Z,7.43
2019-02-24T07:43:34.722Z,7.40
2019-02-24T07:46:02.130Z,7.67
2019-02-24T07:48:29.575Z,8.10
2019-02-24T07:50:56.992Z,7.80
2019-02-24T07:53:24.763Z,7.60
2019-02-24T07:55:52.164Z,8.37
2019-02-24T07:58:19.610Z,8.10
2019-02-24T08:00:47.009Z,8.77
2019-02-24T08:03:14.403Z,8.27
2019-02-24T08:05:42.174Z,8.25
2019-02-24T08:08:16.296Z,8.13
2019-02-24T08:10:38.696Z,8.87
2019-02-24T08:13:06.180Z,7.90
2019-02-24T08:15:33.910Z,8.53
2019-02-24T08:18:01.311Z,8.40
2019-02-24T08:20:28.716Z,8.70
2019-02-24T08:22:56.131Z,8.63
2019-02-24T08:25:23.591Z,9.00
2019-02-24T08:27:50.968Z,8.63
2019-02-24T08:30:18.545Z,9.03
2019-02-24T08:32:46.014Z,10.70
2019-02-24T08:35:13.580Z,12.10
2019-02-24T08:37:41.032Z,9.23
2019-02-24T08:40:08.585Z,12.13
2019-02-24T08:42:35.982Z,15.63
2019-02-24T08:45:03.402Z,13.40
2019-02-24T08:47:30.962Z,10.15
2019-02-24T08:49:58.354Z,12.67
2019-02-24T08:52:25.990Z,10.57
2019-02-24T08:54:53.374Z,15.53
2019-02-24T08:57:20.861Z,13.90
2019-02-24T08:59:48.306Z,12.90
2019-02-24T09:02:15.719Z,15.35
2019-02-24T09:04:44.577Z,14.43
2019-02-24T09:07:11.997Z,13.67
2019-02-24T09:09:39.435Z,11.23
2019-02-24T09:12:06.894Z,13.50
2019-02-24T09:14:34.331Z,12.10
2019-02-24T09:17:01.742Z,12.57
2019-02-24T09:19:29.131Z,12.23
2019-02-24T09:21:56.811Z,14.23
2019-02-24T09:24:24.323Z,11.90
2019-02-24T09:26:51.752Z,13.67
2019-02-24T09:29:19.243Z,13.43
2019-02-24T09:31:46.637Z,13.13
2019-02-24T09:34:14.059Z,12.30
2019-02-24T09:36:41.538Z,11.27
2019-02-24T09:39:08.935Z,10.50
2019-02-24T09:41:36.363Z,11.93
2019-02-24T09:44:03.756Z,10.70
2019-02-24T09:46:31.145Z,11.43
2019-02-24T09:48:58.589Z,10.97
2019-02-24T09:51:26.241Z,10.80
2019-02-24T09:53:53.640Z,11.60
2019-02-24T09:56:21.118Z,11.37
2019-02-24T09:58:48.526Z,11.97
2019-02-24T10:01:15.922Z,12.13
2019-02-24T10:03:43.348Z,13.23
2019-02-24T10:06:10.764Z,12.47
2019-02-24T10:08:38.169Z,13.40
2019-02-24T10:11:05.609Z,14.03
2019-02-24T10:13:33.077Z,13.13
2019-02-24T10:16:00.484Z,13.90
2019-02-24T10:18:28.196Z,11.70
2019-02-24T10:20:55.899Z,12.67
2019-02-24T10:23:23.420Z,11.30
2019-02-24T10:25:51.092Z,13.30
2019-02-24T10:28:18.571Z,11.43
2019-02-24T10:30:45.976Z,11.47
2019-02-24T10:33:13.419Z,11.07
2019-02-24T10:35:41.197Z,10.03
2019-02-24T10:38:08.694Z,11.20
2019-02-24T10:40:36.183Z,11.40
2019-02-24T10:43:03.590Z,10.27
2019-02-24T10:45:31.021Z,11.53
2019-02-24T10:47:58.502Z,10.47
2019-02-24T10:50:25.884Z,10.23
2019-02-24T10:52:53.249Z,9.80
2019-02-24T10:55:20.683Z,10.17
2019-02-24T10:57:48.067Z,10.77
2019-02-24T11:00:15.471Z,9.73
2019-02-24T11:02:42.924Z,9.40
2019-02-24T11:05:10.323Z,9.50
2019-02-24T11:07:37.709Z,8.53
2019-02-24T11:10:05.128Z,9.90
2019-02-24T11:12:32.599Z,8.20
2019-02-24T11:15:00.213Z,9.77
2019-02-24T11:17:27.779Z,7.83
2019-02-24T11:19:55.173Z,7.55
2019-02-24T11:22:22.555Z,6.95
2019-02-24T11:24:50.050Z,7.35
2019-02-24T11:27:17.708Z,7.42
2019-02-24T11:29:45.127Z,6.60
2019-02-24T11:32:12.569Z,6.72
2019-02-24T11:34:40.070Z,6.83
2019-02-24T11:37:07.529Z,6.95
2019-02-24T11:39:35.300Z,6.10
2019-02-24T11:42:02.745Z,6.05
2019-02-24T11:44:30.249Z,6.58
2019-02-24T11:46:57.657Z,6.12
2019-02-24T11:49:25.047Z,5.83
2019-02-24T11:51:52.482Z,5.78
2019-02-24T11:54:19.870Z,6.22
2019-02-24T11:56:47.266Z,6.40
2019-02-24T11:59:14.698Z,7.35
2019-02-24T12:01:47.656Z,8.28
2019-02-24T12:04:12.419Z,5.95
2019-02-24T12:06:39.874Z,7.95
2019-02-24T12:09:07.714Z,9.08
2019-02-24T12:11:35.135Z,8.50
2019-02-24T12:14:02.569Z,7.33
2019-02-24T12:16:30.086Z,7.30
2019-02-24T12:18:57.613Z,9.08
2019-02-24T12:21:25.061Z,7.75
2019-02-24T12:23:52.596Z,7.72
2019-02-24T12:26:20.038Z,6.53
2019-02-24T12:28:47.416Z,6.83
2019-02-24T12:31:14.819Z,9.28
2019-02-24T12:33:42.234Z,10.08
2019-02-24T12:36:09.643Z,9.45
2019-02-24T12:38:37.043Z,8.60
2019-02-24T12:41:04.531Z,8.38
2019-02-24T12:43:31.918Z,7.53
2019-02-24T12:45:59.363Z,7.25
2019-02-24T12:48:26.840Z,9.10
2019-02-24T12:50:54.233Z,8.25
2019-02-24T12:53:21.648Z,7.72
2019-02-24T12:55:49.084Z,7.85
2019-02-24T12:58:16.487Z,8.43
2019-02-24T13:00:43.891Z,7.55
2019-02-24T13:03:11.338Z,8.05
2019-02-24T13:05:38.732Z,6.80
2019-02-24T13:08:06.203Z,6.50
2019-02-24T13:10:33.995Z,7.85
2019-02-24T13:13:01.491Z,6.67
2019-02-24T13:15:28.929Z,5.90
2019-02-24T13:17:56.396Z,5.83
2019-02-24T13:20:23.805Z,5.35
2019-02-24T13:22:51.261Z,5.50
2019-02-24T13:25:18.734Z,6.53
2019-02-24T13:27:46.124Z,7.03
2019-02-24T13:30:13.532Z,6.95
2019-02-24T13:32:41.232Z,5.55
2019-02-24T13:35:08.662Z,5.25
2019-02-24T13:37:36.120Z,4.80
2019-02-24T13:40:03.634Z,5.47
2019-02-24T13:42:31.042Z,5.70
2019-02-24T13:44:58.431Z,5.53
2019-02-24T13:47:25.882Z,5.95
2019-02-24T13:49:53.281Z,5.10
2019-02-24T13:52:20.677Z,5.10
2019-02-24T13:54:48.109Z,4.83
2019-02-24T13:57:15.494Z,5.60
2019-02-24T13:59:42.930Z,5.40
2019-02-24T14:02:10.353Z,10.18
2019-02-24T14:04:37.776Z,6.65
2019-02-24T14:07:05.215Z,5.08
2019-02-24T14:09:32.620Z,5.47
2019-02-24T14:12:00.395Z,7.55
2019-02-24T14:14:27.865Z,7.35
2019-02-24T14:16:55.304Z,5.37
2019-02-24T14:19:22.717Z,4.80
2019-02-24T14:21:50.363Z,5.20
2019-02-24T14:24:17.801Z,4.53
2019-02-24T14:26:45.197Z,6.67
2019-02-24T14:29:12.613Z,5.17
2019-02-24T14:31:40.007Z,4.87
2019-02-24T14:34:07.416Z,4.70
2019-02-24T14:36:34.924Z,4.97
2019-02-24T14:39:02.382Z,5.10
2019-02-24T14:41:29.772Z,5.62
2019-02-24T14:43:57.197Z,4.70
2019-02-24T14:46:24.654Z,5.50
2019-02-24T14:48:52.034Z,6.12
2019-02-24T14:51:19.445Z,5.87
2019-02-24T14:53:47.062Z,5.50
2019-02-24T14:56:14.451Z,4.78
2019-02-24T14:58:41.890Z,5.05
2019-02-24T15:01:09.321Z,4.90
2019-02-24T15:03:37.300Z,5.72
2019-02-24T15:06:04.732Z,5.45
2019-02-24T15:08:32.127Z,5.80
2019-02-24T15:10:59.527Z,4.83
2019-02-24T15:13:26.974Z,4.60
2019-02-24T15:15:54.375Z,4.78
2019-02-24T15:18:22.075Z,4.70
2019-02-24T15:20:49.500Z,4.67
2019-02-24T15:23:17.376Z,4.95
2019-02-24T15:25:44.774Z,6.33
2019-02-24T15:28:12.282Z,6.10
2019-02-24T15:30:39.847Z,7.92
2019-02-24T15:33:07.361Z,6.72
2019-02-24T15:35:35.011Z,6.58
2019-02-24T15:38:02.615Z,7.35
2019-02-24T15:40:30.008Z,8.18
2019-02-24T15:42:57.433Z,7.03
2019-02-24T15:45:24.840Z,7.35
2019-02-24T15:47:52.289Z,7.35
2019-02-24T15:50:19.754Z,8.83
2019-02-24T15:52:47.131Z,8.20
2019-02-24T15:55:14.541Z,9.88
2019-02-24T15:57:41.941Z,8.63
2019-02-24T16:00:10.060Z,7.95
2019-02-24T16:02:37.479Z,7.25
2019-02-24T16:05:05.002Z,6.50
2019-02-24T16:07:32.392Z,7.42
2019-02-24T16:09:59.798Z,6.83
2019-02-24T16:12:27.236Z,6.85
2019-02-24T16:14:54.628Z,7.90
2019-02-24T16:17:22.049Z,7.17
2019-02-24T16:19:49.611Z,8.35
2019-02-24T16:22:16.996Z,10.70
2019-02-24T16:24:44.692Z,8.63
2019-02-24T16:27:12.111Z,9.55
2019-02-24T16:29:39.486Z,10.65
2019-02-24T16:32:06.877Z,10.05
2019-02-24T16:34:34.365Z,9.15
2019-02-24T16:37:01.860Z,11.68
2019-02-24T16:39:29.292Z,11.08
2019-02-24T16:41:56.710Z,11.60
2019-02-24T16:44:24.124Z,9.15
2019-02-24T16:46:51.516Z,11.38
2019-02-24T16:49:18.922Z,9.95
2019-02-24T16:51:46.344Z,10.72
2019-02-24T16:54:13.825Z,13.93
2019-02-24T16:56:41.242Z,11.33
2019-02-24T16:59:08.644Z,10.58
2019-02-24T17:01:36.049Z,11.30
2019-02-24T17:04:03.476Z,10.85
2019-02-24T17:06:30.858Z,10.80
2019-02-24T17:09:01.296Z,10.90
2019-02-24T17:11:27.622Z,11.08
2019-02-24T17:13:55.161Z,10.23
2019-02-24T17:16:22.634Z,12.40
2019-02-24T17:18:50.040Z,9.98
2019-02-24T17:21:17.440Z,9.10
2019-02-24T17:23:49.870Z,11.33
2019-02-24T17:26:14.129Z,13.93
2019-02-24T17:28:41.575Z,12.15
2019-02-24T17:31:08.991Z,10.98
2019-02-24T17:33:36.586Z,12.05
2019-02-24T17:36:03.980Z,12.53
2019-02-24T17:38:31.393Z,12.68
2019-02-24T17:40:58.827Z,13.72
2019-02-24T17:43:26.220Z,12.43
2019-02-24T17:45:53.641Z,12.15
2019-02-24T17:48:21.074Z,13.00
2019-02-24T17:50:48.553Z,12.88
2019-02-24T17:53:16.793Z,13.83
2019-02-24T17:55:44.657Z,15.10
2019-02-24T17:58:12.048Z,12.43
2019-02-24T18:00:45.045Z,12.63
2019-02-24T18:03:12.762Z,12.95
2019-02-24T18:05:40.194Z,11.78
2019-02-24T18:08:07.615Z,9.53
2019-02-24T18:10:35.060Z,15.63
2019-02-24T18:13:02.473Z,13.48
2019-02-24T18:15:29.971Z,12.88
2019-02-24T18:17:57.372Z,11.45
2019-02-24T18:20:24.775Z,10.95
2019-02-24T18:22:52.248Z,10.48
2019-02-24T18:25:19.733Z,10.58
2019-02-24T18:27:47.113Z,12.65
2019-02-24T18:30:14.504Z,12.35
2019-02-24T18:32:41.920Z,12.73
2019-02-24T18:35:09.325Z,10.85
2019-02-24T18:37:36.720Z,11.35
2019-02-24T18:40:04.148Z,12.75
2019-02-24T18:42:31.531Z,10.48
2019-02-24T18:44:58.941Z,9.80
2019-02-24T18:47:26.364Z,10.50
2019-02-24T18:49:54.272Z,10.58
2019-02-24T18:52:21.664Z,9.78
2019-02-24T18:54:49.110Z,11.75
2019-02-24T18:57:16.512Z,13.28
2019-02-24T18:59:43.915Z,8.55
2019-02-24T19:02:11.594Z,10.58
2019-02-24T19:04:39.071Z,11.22
2019-02-24T19:07:06.463Z,10.35
2019-02-24T19:09:33.962Z,12.53
2019-02-24T19:12:01.409Z,11.48
2019-02-24T19:14:28.788Z,11.90
2019-02-24T19:16:57.265Z,10.90
2019-02-24T19:19:25.841Z,11.05
2019-02-24T19:21:53.444Z,13.78
2019-02-24T19:24:20.942Z,11.88
2019-02-24T19:26:48.374Z,10.48
2019-02-24T19:29:15.865Z,12.47
2019-02-24T19:31:43.325Z,11.22
2019-02-24T19:34:12.643Z,12.27
2019-02-24T19:36:40.167Z,11.05
2019-02-24T19:39:07.560Z,10.88
2019-02-24T19:41:34.973Z,11.12
2019-02-24T19:44:02.392Z,12.23
2019-02-24T19:46:29.795Z,11.28
2019-02-24T19:48:57.252Z,12.35
2019-02-24T19:51:24.712Z,12.20
2019-02-24T19:53:52.148Z,11.80
2019-02-24T19:56:19.546Z,10.63
2019-02-24T19:58:49.022Z,10.85
2019-02-24T20:01:16.063Z,10.88
2019-02-24T20:03:43.535Z,10.58
2019-02-24T20:06:11.181Z,10.53
2019-02-24T20:08:38.639Z,11.55
2019-02-24T20:11:06.060Z,10.17
2019-02-24T20:13:33.519Z,11.87
2019-02-24T20:16:00.966Z,10.65
2019-02-24T20:18:28.349Z,10.75
2019-02-24T20:20:55.804Z,11.33
2019-02-24T20:23:23.264Z,12.05
2019-02-24T20:25:50.716Z,11.12
2019-02-24T20:28:18.141Z,11.70
2019-02-24T20:30:45.534Z,11.75
2019-02-24T20:33:16.015Z,12.68
2019-02-24T20:35:43.433Z,12.63
2019-02-24T20:38:10.827Z,11.95
2019-02-24T20:40:38.224Z,11.95
2019-02-24T20:43:05.652Z,12.85
2019-02-24T20:45:33.227Z,11.40
2019-02-24T20:48:00.635Z,11.78
2019-02-24T20:50:28.051Z,11.28
2019-02-24T20:52:55.464Z,11.35
2019-02-24T20:55:22.862Z,10.82
2019-02-24T20:57:50.303Z,11.55
2019-02-24T21:00:18.002Z,10.35
2019-02-24T21:02:45.399Z,11.00
2019-02-24T21:05:12.804Z,10.20
2019-02-24T21:07:40.204Z,11.50
2019-02-24T21:10:07.619Z,10.18
2019-02-24T21:12:35.162Z,10.32
2019-02-24T21:15:02.578Z,20.90
2019-02-24T21:17:30.890Z,13.78
2019-02-24T21:19:58.939Z,8.78
2019-02-24T21:22:27.054Z,10.88
2019-02-24T21:24:54.493Z,9.48
2019-02-24T21:27:21.912Z,10.95
2019-02-24T21:29:49.295Z,15.03
2019-02-24T21:32:16.685Z,10.72
2019-02-24T21:34:44.137Z,10.20
2019-02-24T21:37:11.539Z,10.32
2019-02-24T21:39:39.096Z,9.00
2019-02-24T21:42:06.532Z,9.33
2019-02-24T21:44:34.009Z,11.25
2019-02-24T21:47:01.445Z,10.18
2019-02-24T21:49:28.894Z,10.53
2019-02-24T21:51:56.861Z,10.50
2019-02-24T21:54:24.651Z,9.60
2019-02-24T21:56:52.083Z,8.58
2019-02-24T21:59:19.460Z,9.63
2019-02-24T22:01:46.849Z,10.08
2019-02-24T22:04:14.262Z,8.85
2019-02-24T22:06:41.655Z,9.00
2019-02-24T22:09:09.322Z,9.18
2019-02-24T22:11:36.735Z,10.40
2019-02-24T22:14:04.181Z,9.80
2019-02-24T22:16:31.678Z,8.78
2019-02-24T22:18:59.235Z,10.10
2019-02-24T22:21:26.656Z,9.18
2019-02-24T22:23:54.048Z,9.75
2019-02-24T22:26:21.464Z,8.48
2019-02-24T22:28:48.859Z,11.95
2019-02-24T22:31:16.291Z,9.43
2019-02-24T22:33:43.869Z,11.73
2019-02-24T22:36:11.321Z,9.75
2019-02-24T22:38:38.784Z,8.58
2019-02-24T22:41:06.176Z,8.38
2019-02-24T22:43:33.587Z,10.03
2019-02-24T22:46:01.137Z,11.85
2019-02-24T22:48:28.537Z,10.85
2019-02-24T22:50:56.002Z,10.40
2019-02-24T22:53:23.444Z,9.13
2019-02-24T22:55:50.837Z,8.45
2019-02-24T22:58:18.237Z,8.40
2019-02-24T23:01:09.960Z,9.40
2019-02-24T23:03:37.262Z,10.65
2019-02-24T23:06:04.656Z,8.05
2019-02-24T23:08:50.977Z,7.70
2019-02-24T23:11:18.370Z,9.03
2019-02-24T23:13:45.772Z,7.80
2019-02-24T23:16:13.416Z,7.87
2019-02-24T23:18:40.818Z,9.15
2019-02-24T23:21:08.206Z,8.55
2019-02-24T23:23:35.640Z,10.23
2019-02-24T23:26:03.045Z,9.60
2019-02-24T23:28:30.467Z,8.58
2019-02-24T23:30:58.018Z,9.88
2019-02-24T23:33:25.408Z,12.58
2019-02-24T23:35:52.798Z,10.58
2019-02-24T23:38:20.223Z,10.00
2019-02-24T23:40:47.609Z,11.20
2019-02-24T23:43:14.989Z,10.38
2019-02-24T23:45:42.464Z,10.20
2019-02-24T23:48:09.860Z,8.70
2019-02-24T23:50:37.267Z,9.45
2019-02-24T23:53:04.674Z,10.48
2019-02-24T23:55:32.069Z,11.08
2019-02-24T23:57:59.488Z,9.75
